sensor_id;sensor_type;location;lat;lon;timestamp;pressure;altitude;pressure_sealevel;temperature;humidity
75996;BME280;64681;49.738;9.004;2024-03-29T00:00:41;97761.28;;;4.16;90.93
75996;BME280;64681;49.738;9.004;2024-03-29T00:03:07;97765.81;;;4.16;90.33
75996;BME280;64681;49.738;9.004;2024-03-29T00:05:33;97745.16;;;4.30;89.56
75996;BME280;64681;49.738;9.004;2024-03-29T00:07:58;97750.22;;;4.35;88.87
75996;BME280;64681;49.738;9.004;2024-03-29T00:10:24;97741.41;;;4.31;88.72
75996;BME280;64681;49.738;9.004;2024-03-29T00:12:49;97737.00;;;4.35;88.41
75996;BME280;64681;49.738;9.004;2024-03-29T00:15:15;97732.84;;;4.01;90.83
75996;BME280;64681;49.738;9.004;2024-03-29T00:17:40;97731.97;;;3.96;90.88
75996;BME280;64681;49.738;9.004;2024-03-29T00:20:06;97715.53;;;3.78;91.90
75996;BME280;64681;49.738;9.004;2024-03-29T00:22:32;97696.75;;;3.92;90.98
75996;BME280;64681;49.738;9.004;2024-03-29T00:24:57;97687.72;;;3.81;90.65
75996;BME280;64681;49.738;9.004;2024-03-29T00:27:23;97703.09;;;3.79;91.30
75996;BME280;64681;49.738;9.004;2024-03-29T00:29:51;97704.81;;;3.41;93.21
75996;BME280;64681;49.738;9.004;2024-03-29T00:32:18;97694.19;;;3.50;93.97
75996;BME280;64681;49.738;9.004;2024-03-29T00:34:44;97696.81;;;3.71;92.94
75996;BME280;64681;49.738;9.004;2024-03-29T00:37:11;97706.06;;;3.77;93.30
75996;BME280;64681;49.738;9.004;2024-03-29T00:39:36;97714.09;;;3.81;93.63
75996;BME280;64681;49.738;9.004;2024-03-29T00:42:02;97713.28;;;4.14;92.16
75996;BME280;64681;49.738;9.004;2024-03-29T00:44:27;97699.25;;;4.35;90.56
75996;BME280;64681;49.738;9.004;2024-03-29T00:46:53;97710.38;;;4.53;90.03
75996;BME280;64681;49.738;9.004;2024-03-29T00:49:19;97707.63;;;4.74;89.23
75996;BME280;64681;49.738;9.004;2024-03-29T00:51:44;97698.13;;;4.98;88.20
75996;BME280;64681;49.738;9.004;2024-03-29T00:54:09;97691.19;;;4.93;85.38
75996;BME280;64681;49.738;9.004;2024-03-29T00:56:35;97691.31;;;4.97;86.02
75996;BME280;64681;49.738;9.004;2024-03-29T00:59:00;97693.00;;;5.17;85.89
75996;BME280;64681;49.738;9.004;2024-03-29T01:01:26;97693.25;;;5.41;84.88
75996;BME280;64681;49.738;9.004;2024-03-29T01:03:51;97681.16;;;5.39;84.38
75996;BME280;64681;49.738;9.004;2024-03-29T01:06:17;97684.22;;;5.13;84.44
75996;BME280;64681;49.738;9.004;2024-03-29T01:08:42;97672.78;;;4.84;88.19
75996;BME280;64681;49.738;9.004;2024-03-29T01:11:08;97667.91;;;5.11;86.38
75996;BME280;64681;49.738;9.004;2024-03-29T01:13:33;97672.47;;;5.27;85.71
75996;BME280;64681;49.738;9.004;2024-03-29T01:15:59;97672.09;;;5.41;84.21
75996;BME280;64681;49.738;9.004;2024-03-29T01:18:24;97663.63;;;5.35;83.93
75996;BME280;64681;49.738;9.004;2024-03-29T01:20:50;97662.75;;;5.31;84.43
75996;BME280;64681;49.738;9.004;2024-03-29T01:23:15;97655.16;;;5.29;84.97
75996;BME280;64681;49.738;9.004;2024-03-29T01:25:42;97652.84;;;5.28;84.73
75996;BME280;64681;49.738;9.004;2024-03-29T01:28:07;97652.56;;;5.17;85.97
75996;BME280;64681;49.738;9.004;2024-03-29T01:30:33;97661.59;;;5.16;87.04
75996;BME280;64681;49.738;9.004;2024-03-29T01:32:58;97658.25;;;5.31;85.71
75996;BME280;64681;49.738;9.004;2024-03-29T01:35:24;97649.63;;;5.34;86.68
75996;BME280;64681;49.738;9.004;2024-03-29T01:37:49;97613.53;;;5.42;85.26
75996;BME280;64681;49.738;9.004;2024-03-29T01:40:14;97604.59;;;5.47;84.49
75996;BME280;64681;49.738;9.004;2024-03-29T01:42:40;97606.97;;;5.36;84.78
75996;BME280;64681;49.738;9.004;2024-03-29T01:45:05;97605.81;;;5.37;84.88
75996;BME280;64681;49.738;9.004;2024-03-29T01:47:32;97614.06;;;5.19;85.60
75996;BME280;64681;49.738;9.004;2024-03-29T01:49:57;97619.88;;;5.25;85.33
75996;BME280;64681;49.738;9.004;2024-03-29T01:52:23;97627.50;;;5.27;85.40
75996;BME280;64681;49.738;9.004;2024-03-29T01:54:49;97633.47;;;5.23;85.12
75996;BME280;64681;49.738;9.004;2024-03-29T01:57:16;97632.69;;;5.23;86.24
75996;BME280;64681;49.738;9.004;2024-03-29T01:59:45;97625.94;;;4.97;87.40
75996;BME280;64681;49.738;9.004;2024-03-29T02:02:12;97613.88;;;4.71;88.59
75996;BME280;64681;49.738;9.004;2024-03-29T02:04:38;97604.03;;;4.31;92.65
75996;BME280;64681;49.738;9.004;2024-03-29T02:07:04;97607.97;;;4.90;90.06
75996;BME280;64681;49.738;9.004;2024-03-29T02:09:29;97596.31;;;5.20;87.79
75996;BME280;64681;49.738;9.004;2024-03-29T02:11:55;97611.00;;;5.46;86.19
75996;BME280;64681;49.738;9.004;2024-03-29T02:14:20;97595.41;;;5.44;85.29
75996;BME280;64681;49.738;9.004;2024-03-29T02:16:46;97604.72;;;5.38;85.30
75996;BME280;64681;49.738;9.004;2024-03-29T02:19:11;97617.81;;;5.47;84.68
75996;BME280;64681;49.738;9.004;2024-03-29T02:21:43;97618.22;;;5.33;85.36
75996;BME280;64681;49.738;9.004;2024-03-29T02:24:12;97619.03;;;5.21;86.29
75996;BME280;64681;49.738;9.004;2024-03-29T02:26:38;97619.06;;;5.37;85.81
75996;BME280;64681;49.738;9.004;2024-03-29T02:29:08;97626.44;;;5.44;85.76
75996;BME280;64681;49.738;9.004;2024-03-29T02:31:34;97625.16;;;5.53;85.36
75996;BME280;64681;49.738;9.004;2024-03-29T02:34:00;97627.72;;;5.50;86.80
75996;BME280;64681;49.738;9.004;2024-03-29T02:36:25;97646.38;;;5.69;85.14
75996;BME280;64681;49.738;9.004;2024-03-29T02:38:51;97637.66;;;5.53;86.53
75996;BME280;64681;49.738;9.004;2024-03-29T02:41:16;97642.41;;;5.47;86.65
75996;BME280;64681;49.738;9.004;2024-03-29T02:43:42;97635.53;;;5.91;85.12
75996;BME280;64681;49.738;9.004;2024-03-29T02:46:07;97631.97;;;5.83;85.22
75996;BME280;64681;49.738;9.004;2024-03-29T02:48:33;97604.94;;;5.61;85.70
75996;BME280;64681;49.738;9.004;2024-03-29T02:50:58;97612.16;;;5.77;85.21
75996;BME280;64681;49.738;9.004;2024-03-29T02:53:23;97612.19;;;5.64;86.33
75996;BME280;64681;49.738;9.004;2024-03-29T02:55:49;97600.94;;;5.67;87.49
75996;BME280;64681;49.738;9.004;2024-03-29T02:58:15;97623.38;;;6.02;85.26
75996;BME280;64681;49.738;9.004;2024-03-29T03:00:40;97622.88;;;5.68;85.87
75996;BME280;64681;49.738;9.004;2024-03-29T03:03:05;97656.75;;;5.91;85.04
75996;BME280;64681;49.738;9.004;2024-03-29T03:05:31;97618.47;;;5.28;86.71
75996;BME280;64681;49.738;9.004;2024-03-29T03:07:57;97641.22;;;5.45;86.84
75996;BME280;64681;49.738;9.004;2024-03-29T03:10:48;97647.94;;;5.70;84.87
75996;BME280;64681;49.738;9.004;2024-03-29T03:13:28;97633.56;;;5.71;84.84
75996;BME280;64681;49.738;9.004;2024-03-29T03:15:54;97624.31;;;5.21;88.70
75996;BME280;64681;49.738;9.004;2024-03-29T03:18:19;97620.00;;;5.73;86.60
75996;BME280;64681;49.738;9.004;2024-03-29T03:20:52;97644.72;;;5.93;85.71
75996;BME280;64681;49.738;9.004;2024-03-29T03:23:17;97642.59;;;5.99;85.64
75996;BME280;64681;49.738;9.004;2024-03-29T03:25:43;97621.03;;;5.84;85.08
75996;BME280;64681;49.738;9.004;2024-03-29T03:28:08;97630.13;;;5.99;83.21
75996;BME280;64681;49.738;9.004;2024-03-29T03:30:39;97659.53;;;6.10;83.81
75996;BME280;64681;49.738;9.004;2024-03-29T03:33:04;97650.78;;;6.10;82.97
75996;BME280;64681;49.738;9.004;2024-03-29T03:35:30;97641.22;;;5.45;86.83
75996;BME280;64681;49.738;9.004;2024-03-29T03:37:55;97644.44;;;5.98;84.62
75996;BME280;64681;49.738;9.004;2024-03-29T03:40:21;97641.84;;;6.30;84.36
75996;BME280;64681;49.738;9.004;2024-03-29T03:42:47;97645.06;;;6.40;83.04
75996;BME280;64681;49.738;9.004;2024-03-29T03:45:12;97635.81;;;6.49;83.25
75996;BME280;64681;49.738;9.004;2024-03-29T03:47:39;97633.84;;;6.62;83.22
75996;BME280;64681;49.738;9.004;2024-03-29T03:50:04;97637.78;;;6.53;83.56
75996;BME280;64681;49.738;9.004;2024-03-29T03:52:30;97636.41;;;6.43;82.24
75996;BME280;64681;49.738;9.004;2024-03-29T03:54:58;97632.06;;;6.34;82.77
75996;BME280;64681;49.738;9.004;2024-03-29T03:57:24;97627.28;;;6.40;85.14
75996;BME280;64681;49.738;9.004;2024-03-29T03:59:50;97632.13;;;5.74;87.18
75996;BME280;64681;49.738;9.004;2024-03-29T04:02:15;97637.22;;;6.11;86.96
75996;BME280;64681;49.738;9.004;2024-03-29T04:04:41;97630.13;;;6.31;85.69
75996;BME280;64681;49.738;9.004;2024-03-29T04:07:06;97634.78;;;6.38;84.51
75996;BME280;64681;49.738;9.004;2024-03-29T04:09:32;97638.41;;;6.14;85.38
75996;BME280;64681;49.738;9.004;2024-03-29T04:11:57;97644.81;;;6.29;84.90
75996;BME280;64681;49.738;9.004;2024-03-29T04:14:23;97637.09;;;5.92;85.91
75996;BME280;64681;49.738;9.004;2024-03-29T04:16:48;97639.44;;;6.09;85.57
75996;BME280;64681;49.738;9.004;2024-03-29T04:19:14;97645.25;;;6.31;83.33
75996;BME280;64681;49.738;9.004;2024-03-29T04:21:39;97653.28;;;6.51;82.59
75996;BME280;64681;49.738;9.004;2024-03-29T04:24:05;97639.31;;;6.54;82.85
75996;BME280;64681;49.738;9.004;2024-03-29T04:26:33;97624.44;;;6.49;84.24
75996;BME280;64681;49.738;9.004;2024-03-29T04:28:58;97624.94;;;6.55;82.61
75996;BME280;64681;49.738;9.004;2024-03-29T04:31:23;97612.00;;;6.69;82.80
75996;BME280;64681;49.738;9.004;2024-03-29T04:33:49;97614.94;;;6.84;83.98
75996;BME280;64681;49.738;9.004;2024-03-29T04:36:14;97603.31;;;7.08;83.65
75996;BME280;64681;49.738;9.004;2024-03-29T04:38:40;97615.09;;;7.10;84.22
75996;BME280;64681;49.738;9.004;2024-03-29T04:41:06;97618.66;;;7.18;85.42
75996;BME280;64681;49.738;9.004;2024-03-29T04:43:31;97629.00;;;7.23;86.31
75996;BME280;64681;49.738;9.004;2024-03-29T04:46:17;97629.34;;;7.22;88.72
75996;BME280;64681;49.738;9.004;2024-03-29T04:48:43;97621.31;;;7.38;88.03
75996;BME280;64681;49.738;9.004;2024-03-29T04:51:11;97622.22;;;7.06;91.01
75996;BME280;64681;49.738;9.004;2024-03-29T04:53:38;97619.38;;;7.15;90.08
75996;BME280;64681;49.738;9.004;2024-03-29T04:56:04;97623.41;;;7.28;89.35
75996;BME280;64681;49.738;9.004;2024-03-29T04:58:30;97632.47;;;7.27;91.10
75996;BME280;64681;49.738;9.004;2024-03-29T05:00:55;97635.06;;;7.24;91.52
75996;BME280;64681;49.738;9.004;2024-03-29T05:03:22;97634.31;;;7.23;91.86
75996;BME280;64681;49.738;9.004;2024-03-29T05:05:49;97641.19;;;7.28;92.74
75996;BME280;64681;49.738;9.004;2024-03-29T05:08:15;97632.47;;;7.27;92.85
75996;BME280;64681;49.738;9.004;2024-03-29T05:10:40;97642.69;;;7.25;92.75
75996;BME280;64681;49.738;9.004;2024-03-29T05:13:06;97644.22;;;7.26;92.62
75996;BME280;64681;49.738;9.004;2024-03-29T05:15:32;97651.53;;;7.13;94.93
75996;BME280;64681;49.738;9.004;2024-03-29T05:17:58;97652.53;;;7.25;94.05
75996;BME280;64681;49.738;9.004;2024-03-29T05:20:23;97666.31;;;7.31;93.84
75996;BME280;64681;49.738;9.004;2024-03-29T05:22:48;97664.47;;;7.35;93.26
75996;BME280;64681;49.738;9.004;2024-03-29T05:25:14;97659.53;;;7.33;94.17
75996;BME280;64681;49.738;9.004;2024-03-29T05:27:39;97661.00;;;7.31;93.95
75996;BME280;64681;49.738;9.004;2024-03-29T05:30:05;97660.63;;;7.32;94.48
75996;BME280;64681;49.738;9.004;2024-03-29T05:32:31;97659.88;;;7.32;95.38
75996;BME280;64681;49.738;9.004;2024-03-29T05:34:56;97664.13;;;7.36;95.72
75996;BME280;64681;49.738;9.004;2024-03-29T05:37:22;97648.47;;;7.31;97.02
75996;BME280;64681;49.738;9.004;2024-03-29T05:39:53;97652.81;;;7.39;97.28
75996;BME280;64681;49.738;9.004;2024-03-29T05:42:26;97649.34;;;7.35;99.20
75996;BME280;64681;49.738;9.004;2024-03-29T05:44:51;97640.16;;;7.52;97.34
75996;BME280;64681;49.738;9.004;2024-03-29T05:47:16;97640.66;;;7.58;96.99
75996;BME280;64681;49.738;9.004;2024-03-29T05:49:42;97637.69;;;7.63;97.16
75996;BME280;64681;49.738;9.004;2024-03-29T05:52:07;97632.88;;;7.69;96.91
75996;BME280;64681;49.738;9.004;2024-03-29T05:54:33;97629.72;;;7.63;97.58
75996;BME280;64681;49.738;9.004;2024-03-29T05:56:58;97633.19;;;7.67;97.09
75996;BME280;64681;49.738;9.004;2024-03-29T05:59:23;97631.38;;;7.71;97.35
75996;BME280;64681;49.738;9.004;2024-03-29T06:01:49;97629.22;;;7.77;96.88
75996;BME280;64681;49.738;9.004;2024-03-29T06:04:14;97632.31;;;7.83;97.01
75996;BME280;64681;49.738;9.004;2024-03-29T06:06:44;97631.31;;;7.91;96.09
75996;BME280;64681;49.738;9.004;2024-03-29T06:09:09;97633.53;;;7.85;95.75
75996;BME280;64681;49.738;9.004;2024-03-29T06:11:35;97630.03;;;7.81;96.07
75996;BME280;64681;49.738;9.004;2024-03-29T06:14:01;97632.31;;;7.83;96.59
75996;BME280;64681;49.738;9.004;2024-03-29T06:16:28;97637.06;;;7.93;95.85
75996;BME280;64681;49.738;9.004;2024-03-29T06:19:12;97640.53;;;7.97;95.49
75996;BME280;64681;49.738;9.004;2024-03-29T06:21:38;97646.56;;;7.94;95.82
75996;BME280;64681;49.738;9.004;2024-03-29T06:24:05;97652.59;;;7.91;96.46
75996;BME280;64681;49.738;9.004;2024-03-29T06:26:31;97648.56;;;8.01;95.57
75996;BME280;64681;49.738;9.004;2024-03-29T06:28:57;97665.78;;;8.07;95.32
75996;BME280;64681;49.738;9.004;2024-03-29T06:31:22;97665.00;;;7.83;97.19
75996;BME280;64681;49.738;9.004;2024-03-29T06:33:47;97676.56;;;7.95;96.87
75996;BME280;64681;49.738;9.004;2024-03-29T06:36:13;97679.75;;;8.04;96.07
75996;BME280;64681;49.738;9.004;2024-03-29T06:38:38;97689.81;;;8.14;95.43
75996;BME280;64681;49.738;9.004;2024-03-29T06:41:04;97686.44;;;8.17;94.92
75996;BME280;64681;49.738;9.004;2024-03-29T06:43:29;97680.06;;;7.56;100.00
75996;BME280;64681;49.738;9.004;2024-03-29T06:45:54;97668.59;;;7.95;98.13
75996;BME280;64681;49.738;9.004;2024-03-29T06:48:21;97658.31;;;8.16;95.96
75996;BME280;64681;49.738;9.004;2024-03-29T06:50:46;97659.22;;;8.24;94.63
75996;BME280;64681;49.738;9.004;2024-03-29T06:53:12;97658.88;;;8.02;94.63
75996;BME280;64681;49.738;9.004;2024-03-29T06:55:37;97658.31;;;8.16;93.62
75996;BME280;64681;49.738;9.004;2024-03-29T06:58:03;97654.31;;;7.80;97.63
75996;BME280;64681;49.738;9.004;2024-03-29T07:00:28;97660.00;;;7.82;98.85
75996;BME280;64681;49.738;9.004;2024-03-29T07:02:54;97655.13;;;7.84;99.08
75996;BME280;64681;49.738;9.004;2024-03-29T07:05:19;97663.63;;;7.70;100.00
75996;BME280;64681;49.738;9.004;2024-03-29T07:07:45;97655.19;;;7.87;99.50
75996;BME280;64681;49.738;9.004;2024-03-29T07:10:12;97657.97;;;8.18;96.80
75996;BME280;64681;49.738;9.004;2024-03-29T07:12:38;97650.53;;;8.04;97.50
75996;BME280;64681;49.738;9.004;2024-03-29T07:15:03;97654.09;;;8.12;97.89
75996;BME280;64681;49.738;9.004;2024-03-29T07:17:29;97642.88;;;8.26;97.50
75996;BME280;64681;49.738;9.004;2024-03-29T07:19:54;97642.13;;;8.48;97.29
75996;BME280;64681;49.738;9.004;2024-03-29T07:22:20;97635.13;;;8.63;97.16
75996;BME280;64681;49.738;9.004;2024-03-29T07:24:45;97638.38;;;8.80;96.85
75996;BME280;64681;49.738;9.004;2024-03-29T07:27:11;97636.66;;;8.95;96.73
75996;BME280;64681;49.738;9.004;2024-03-29T07:29:38;97627.44;;;9.15;94.69
75996;BME280;64681;49.738;9.004;2024-03-29T07:32:03;97626.47;;;9.00;92.19
75996;BME280;64681;49.738;9.004;2024-03-29T07:34:29;97627.31;;;9.08;93.19
75996;BME280;64681;49.738;9.004;2024-03-29T07:36:54;97623.91;;;8.77;94.03
75996;BME280;64681;49.738;9.004;2024-03-29T07:39:20;97631.88;;;9.08;94.72
75996;BME280;64681;49.738;9.004;2024-03-29T07:41:45;97633.09;;;9.14;93.08
75996;BME280;64681;49.738;9.004;2024-03-29T07:44:11;97634.16;;;9.09;93.57
75996;BME280;64681;49.738;9.004;2024-03-29T07:46:37;97629.22;;;9.42;93.22
75996;BME280;64681;49.738;9.004;2024-03-29T07:49:03;97633.00;;;9.78;91.25
75996;BME280;64681;49.738;9.004;2024-03-29T07:51:29;97630.84;;;9.91;88.53
75996;BME280;64681;49.738;9.004;2024-03-29T07:53:55;97623.72;;;10.06;89.56
75996;BME280;64681;49.738;9.004;2024-03-29T07:56:20;97626.09;;;10.19;89.54
75996;BME280;64681;49.738;9.004;2024-03-29T07:58:50;97634.69;;;10.42;86.04
75996;BME280;64681;49.738;9.004;2024-03-29T08:01:20;97643.44;;;10.43;86.07
75996;BME280;64681;49.738;9.004;2024-03-29T08:03:46;97639.28;;;10.42;87.18
75996;BME280;64681;49.738;9.004;2024-03-29T08:06:11;97652.72;;;10.60;87.26
75996;BME280;64681;49.738;9.004;2024-03-29T08:08:42;97652.28;;;10.51;86.99
75996;BME280;64681;49.738;9.004;2024-03-29T08:11:07;97651.69;;;10.23;87.01
75996;BME280;64681;49.738;9.004;2024-03-29T08:13:35;97649.63;;;10.51;86.79
75996;BME280;64681;49.738;9.004;2024-03-29T08:16:01;97648.25;;;10.23;85.85
75996;BME280;64681;49.738;9.004;2024-03-29T08:18:27;97648.50;;;10.55;85.31
75996;BME280;64681;49.738;9.004;2024-03-29T08:20:54;97659.59;;;10.61;86.32
75996;BME280;64681;49.738;9.004;2024-03-29T08:23:21;97664.59;;;10.70;85.33
75996;BME280;64681;49.738;9.004;2024-03-29T08:25:47;97672.97;;;10.65;86.21
75996;BME280;64681;49.738;9.004;2024-03-29T08:28:13;97678.97;;;10.51;85.77
75996;BME280;64681;49.738;9.004;2024-03-29T08:30:38;97668.31;;;10.54;86.80
75996;BME280;64681;49.738;9.004;2024-03-29T08:33:04;97669.94;;;10.70;86.06
75996;BME280;64681;49.738;9.004;2024-03-29T08:35:30;97665.47;;;10.88;84.50
75996;BME280;64681;49.738;9.004;2024-03-29T08:37:55;97661.53;;;10.68;84.99
75996;BME280;64681;49.738;9.004;2024-03-29T08:40:21;97662.66;;;10.63;85.71
75996;BME280;64681;49.738;9.004;2024-03-29T08:42:47;97667.63;;;10.65;85.61
75996;BME280;64681;49.738;9.004;2024-03-29T08:45:13;97680.66;;;10.73;85.49
75996;BME280;64681;49.738;9.004;2024-03-29T08:47:38;97684.88;;;10.78;85.86
75996;BME280;64681;49.738;9.004;2024-03-29T08:50:04;97682.59;;;10.80;85.91
75996;BME280;64681;49.738;9.004;2024-03-29T08:52:30;97694.53;;;11.01;84.79
75996;BME280;64681;49.738;9.004;2024-03-29T08:54:55;97688.78;;;10.39;86.73
75996;BME280;64681;49.738;9.004;2024-03-29T08:57:21;97694.19;;;10.47;87.63
75996;BME280;64681;49.738;9.004;2024-03-29T08:59:46;97699.47;;;10.39;87.62
75996;BME280;64681;49.738;9.004;2024-03-29T09:02:12;97701.81;;;10.44;86.25
75996;BME280;64681;49.738;9.004;2024-03-29T09:04:37;97715.53;;;10.50;87.53
75996;BME280;64681;49.738;9.004;2024-03-29T09:07:03;97714.06;;;10.53;87.58
75996;BME280;64681;49.738;9.004;2024-03-29T09:09:29;97731.38;;;10.32;89.24
75996;BME280;64681;49.738;9.004;2024-03-29T09:11:55;97723.13;;;10.41;89.93
75996;BME280;64681;49.738;9.004;2024-03-29T09:14:21;97725.56;;;10.60;87.27
75996;BME280;64681;49.738;9.004;2024-03-29T09:16:46;97733.16;;;10.58;88.11
75996;BME280;64681;49.738;9.004;2024-03-29T09:19:14;97740.38;;;10.54;89.56
75996;BME280;64681;49.738;9.004;2024-03-29T09:21:40;97743.53;;;10.67;86.86
75996;BME280;64681;49.738;9.004;2024-03-29T09:24:06;97749.91;;;10.52;86.91
75996;BME280;64681;49.738;9.004;2024-03-29T09:26:32;97754.84;;;10.16;89.18
75996;BME280;64681;49.738;9.004;2024-03-29T09:28:57;97762.34;;;9.99;90.36
75996;BME280;64681;49.738;9.004;2024-03-29T09:31:23;97748.25;;;9.64;93.18
75996;BME280;64681;49.738;9.004;2024-03-29T09:33:51;97769.97;;;10.01;92.68
75996;BME280;64681;49.738;9.004;2024-03-29T09:36:23;97776.63;;;10.21;89.60
75996;BME280;64681;49.738;9.004;2024-03-29T09:38:49;97771.16;;;10.07;90.25
75996;BME280;64681;49.738;9.004;2024-03-29T09:41:17;97794.38;;;10.03;91.36
75996;BME280;64681;49.738;9.004;2024-03-29T09:43:45;97772.34;;;9.75;94.04
75996;BME280;64681;49.738;9.004;2024-03-29T09:46:12;97774.13;;;9.33;95.86
75996;BME280;64681;49.738;9.004;2024-03-29T09:48:40;97781.81;;;9.69;93.95
75996;BME280;64681;49.738;9.004;2024-03-29T09:51:06;97786.69;;;9.37;96.52
75996;BME280;64681;49.738;9.004;2024-03-29T09:53:36;97781.94;;;9.49;97.72
75996;BME280;64681;49.738;9.004;2024-03-29T09:56:06;97793.94;;;9.66;95.99
75996;BME280;64681;49.738;9.004;2024-03-29T09:58:32;97801.22;;;9.70;95.97
75996;BME280;64681;49.738;9.004;2024-03-29T10:00:58;97813.84;;;9.73;96.73
75996;BME280;64681;49.738;9.004;2024-03-29T10:03:24;97811.00;;;9.31;99.87
75996;BME280;64681;49.738;9.004;2024-03-29T10:05:58;97805.78;;;9.69;97.97
75996;BME280;64681;49.738;9.004;2024-03-29T10:08:28;97809.91;;;9.97;96.08
75996;BME280;64681;49.738;9.004;2024-03-29T10:10:56;97809.88;;;10.31;95.73
75996;BME280;64681;49.738;9.004;2024-03-29T10:13:22;97807.69;;;10.78;92.48
75996;BME280;64681;49.738;9.004;2024-03-29T10:15:51;97809.31;;;10.90;92.59
75996;BME280;64681;49.738;9.004;2024-03-29T10:18:18;97811.41;;;11.18;92.48
75996;BME280;64681;49.738;9.004;2024-03-29T10:20:45;97816.81;;;11.26;91.05
75996;BME280;64681;49.738;9.004;2024-03-29T10:23:11;97813.88;;;10.44;93.35
75996;BME280;64681;49.738;9.004;2024-03-29T10:25:37;97813.25;;;11.07;90.18
75996;BME280;64681;49.738;9.004;2024-03-29T10:28:02;97826.81;;;11.43;91.00
75996;BME280;64681;49.738;9.004;2024-03-29T10:30:29;97825.47;;;11.75;88.12
75996;BME280;64681;49.738;9.004;2024-03-29T10:32:57;97818.53;;;11.63;89.59
75996;BME280;64681;49.738;9.004;2024-03-29T10:35:25;97819.53;;;11.33;89.54
75996;BME280;64681;49.738;9.004;2024-03-29T10:37:54;97824.16;;;11.43;88.15
75996;BME280;64681;49.738;9.004;2024-03-29T10:40:21;97821.09;;;11.37;90.30
75996;BME280;64681;49.738;9.004;2024-03-29T10:42:48;97821.22;;;11.63;88.48
75996;BME280;64681;49.738;9.004;2024-03-29T10:45:14;97819.16;;;11.38;89.75
75996;BME280;64681;49.738;9.004;2024-03-29T10:47:41;97813.66;;;11.79;86.66
75996;BME280;64681;49.738;9.004;2024-03-29T10:50:12;97809.78;;;11.03;94.19
75996;BME280;64681;49.738;9.004;2024-03-29T10:52:39;97808.91;;;11.44;92.90
75996;BME280;64681;49.738;9.004;2024-03-29T10:55:08;97796.50;;;11.87;89.74
75996;BME280;64681;49.738;9.004;2024-03-29T10:57:34;97792.84;;;12.72;87.24
75996;BME280;64681;49.738;9.004;2024-03-29T11:00:22;97795.91;;;12.77;84.81
75996;BME280;64681;49.738;9.004;2024-03-29T11:03:07;97790.94;;;12.97;83.92
75996;BME280;64681;49.738;9.004;2024-03-29T11:05:35;97778.59;;;13.51;82.55
75996;BME280;64681;49.738;9.004;2024-03-29T11:08:06;97772.69;;;13.88;79.16
75996;BME280;64681;49.738;9.004;2024-03-29T11:10:44;97760.03;;;13.92;78.41
75996;BME280;64681;49.738;9.004;2024-03-29T11:15:41;97760.75;;;14.60;76.77
75996;BME280;64681;49.738;9.004;2024-03-29T11:18:10;97755.13;;;14.93;76.43
75996;BME280;64681;49.738;9.004;2024-03-29T11:20:36;97749.38;;;14.91;76.43
75996;BME280;64681;49.738;9.004;2024-03-29T11:23:08;97737.66;;;14.70;74.29
75996;BME280;64681;49.738;9.004;2024-03-29T11:25:55;97722.47;;;15.29;74.34
75996;BME280;64681;49.738;9.004;2024-03-29T11:28:28;97737.16;;;14.86;75.91
75996;BME280;64681;49.738;9.004;2024-03-29T11:31:02;97735.41;;;14.61;74.96
75996;BME280;64681;49.738;9.004;2024-03-29T11:33:35;97743.06;;;15.08;73.88
75996;BME280;64681;49.738;9.004;2024-03-29T11:36:16;97733.63;;;14.93;74.93
75996;BME280;64681;49.738;9.004;2024-03-29T11:38:45;97736.78;;;14.84;74.43
75996;BME280;64681;49.738;9.004;2024-03-29T11:41:13;97736.28;;;14.47;75.27
75996;BME280;64681;49.738;9.004;2024-03-29T11:43:39;97721.69;;;14.48;76.10
75996;BME280;64681;49.738;9.004;2024-03-29T11:46:12;97716.44;;;15.21;74.66
75996;BME280;64681;49.738;9.004;2024-03-29T11:48:38;97705.09;;;15.68;72.22
75996;BME280;64681;49.738;9.004;2024-03-29T11:51:13;97707.56;;;16.13;70.20
75996;BME280;64681;49.738;9.004;2024-03-29T11:53:41;97711.94;;;16.55;69.40
75996;BME280;64681;49.738;9.004;2024-03-29T11:56:07;97710.78;;;15.74;70.76
75996;BME280;64681;49.738;9.004;2024-03-29T11:58:34;97709.94;;;15.84;71.50
75996;BME280;64681;49.738;9.004;2024-03-29T12:01:00;97710.28;;;15.82;70.14
75996;BME280;64681;49.738;9.004;2024-03-29T12:03:28;97710.25;;;15.59;71.54
75996;BME280;64681;49.738;9.004;2024-03-29T12:05:57;97715.19;;;15.29;72.51
75996;BME280;64681;49.738;9.004;2024-03-29T12:08:32;97710.38;;;15.13;72.63
75996;BME280;64681;49.738;9.004;2024-03-29T12:11:00;97720.72;;;14.77;75.16
75996;BME280;64681;49.738;9.004;2024-03-29T12:13:25;97728.16;;;14.54;77.24
75996;BME280;64681;49.738;9.004;2024-03-29T12:15:51;97740.41;;;14.06;78.42
75996;BME280;64681;49.738;9.004;2024-03-29T12:18:19;97744.31;;;13.91;79.16
75996;BME280;64681;49.738;9.004;2024-03-29T12:20:45;97756.53;;;13.99;79.04
75996;BME280;64681;49.738;9.004;2024-03-29T12:23:15;97766.28;;;13.71;80.03
75996;BME280;64681;49.738;9.004;2024-03-29T12:25:41;97775.88;;;13.61;80.79
75996;BME280;64681;49.738;9.004;2024-03-29T12:28:09;97773.66;;;13.42;81.07
75996;BME280;64681;49.738;9.004;2024-03-29T12:30:34;97773.25;;;13.40;81.23
75996;BME280;64681;49.738;9.004;2024-03-29T12:33:05;97791.63;;;13.38;81.58
75996;BME280;64681;49.738;9.004;2024-03-29T12:35:34;97785.91;;;13.28;83.25
75996;BME280;64681;49.738;9.004;2024-03-29T12:38:01;97794.69;;;13.33;83.66
75996;BME280;64681;49.738;9.004;2024-03-29T12:40:29;97814.59;;;13.35;84.02
75996;BME280;64681;49.738;9.004;2024-03-29T12:42:58;97820.00;;;13.10;85.84
75996;BME280;64681;49.738;9.004;2024-03-29T12:45:24;97826.50;;;13.02;85.94
75996;BME280;64681;49.738;9.004;2024-03-29T12:47:50;97833.41;;;12.74;88.80
75996;BME280;64681;49.738;9.004;2024-03-29T12:50:24;97830.72;;;12.70;90.05
75996;BME280;64681;49.738;9.004;2024-03-29T12:53:05;97844.50;;;12.76;89.41
75996;BME280;64681;49.738;9.004;2024-03-29T12:55:32;97841.81;;;12.65;91.21
75996;BME280;64681;49.738;9.004;2024-03-29T12:58:01;97828.03;;;12.41;92.05
75996;BME280;64681;49.738;9.004;2024-03-29T13:00:28;97834.13;;;12.45;90.79
75996;BME280;64681;49.738;9.004;2024-03-29T13:02:54;97820.75;;;12.60;90.55
75996;BME280;64681;49.738;9.004;2024-03-29T13:05:19;97826.50;;;12.65;90.63
75996;BME280;64681;49.738;9.004;2024-03-29T13:07:45;97841.81;;;12.69;90.82